sensor_id;sensor_type;location;lat;lon;timestamp;temperature;humidity
19344;DHT22;9808;52.402;16.678;2022-11-20T00:01:31;-0.50;99.90
19344;DHT22;9808;52.402;16.678;2022-11-20T00:03:59;-0.50;99.90
19344;DHT22;9808;52.402;16.678;2022-11-20T00:06:27;-0.50;99.90
19344;DHT22;9808;52.402;16.678;2022-11-20T00:08:56;1.30;99.90
19344;DHT22;9808;52.402;16.678;2022-11-20T00:11:25;-0.40;99.90
19344;DHT22;9808;52.402;16.678;2022-11-20T00:13:55;-0.40;99.90
19344;DHT22;9808;52.402;16.678;2022-11-20T00:16:26;-0.50;99.90
19344;DHT22;9808;52.402;16.678;2022-11-20T00:18:57;-0.50;99.90
19344;DHT22;9808;52.402;16.678;2022-11-20T00:21:26;-0.50;99.90
19344;DHT22;9808;52.402;16.678;2022-11-20T00:23:54;-0.40;99.90
19344;DHT22;9808;52.402;16.678;2022-11-20T00:26:23;-0.50;99.90
19344;DHT22;9808;52.402;16.678;2022-11-20T00:28:56;-0.40;99.90
19344;DHT22;9808;52.402;16.678;2022-11-20T00:31:23;-0.40;99.90
19344;DHT22;9808;52.402;16.678;2022-11-20T00:33:50;-0.40;99.90
19344;DHT22;9808;52.402;16.678;2022-11-20T00:36:23;-0.40;99.90
19344;DHT22;9808;52.402;16.678;2022-11-20T00:38:54;-0.40;99.90
19344;DHT22;9808;52.402;16.678;2022-11-20T00:41:22;-0.40;99.90
19344;DHT22;9808;52.402;16.678;2022-11-20T00:43:50;-0.40;99.90
19344;DHT22;9808;52.402;16.678;2022-11-20T00:46:20;-0.40;99.90
19344;DHT22;9808;52.402;16.678;2022-11-20T00:48:47;-0.40;99.90
19344;DHT22;9808;52.402;16.678;2022-11-20T00:51:19;-0.40;99.90
19344;DHT22;9808;52.402;16.678;2022-11-20T00:53:46;-0.40;99.90
19344;DHT22;9808;52.402;16.678;2022-11-20T00:56:15;-0.40;99.90
19344;DHT22;9808;52.402;16.678;2022-11-20T00:58:44;-0.40;99.90
19344;DHT22;9808;52.402;16.678;2022-11-20T01:01:17;-0.40;99.90
19344;DHT22;9808;52.402;16.678;2022-11-20T01:03:47;-0.40;99.90
19344;DHT22;9808;52.402;16.678;2022-11-20T01:06:23;-0.50;99.90
19344;DHT22;9808;52.402;16.678;2022-11-20T01:08:53;-0.50;99.90
19344;DHT22;9808;52.402;16.678;2022-11-20T01:11:26;-0.50;99.90
19344;DHT22;9808;52.402;16.678;2022-11-20T01:13:53;-0.50;99.90
19344;DHT22;9808;52.402;16.678;2022-11-20T01:16:30;-0.50;99.90
19344;DHT22;9808;52.402;16.678;2022-11-20T01:19:01;-0.50;99.90
19344;DHT22;9808;52.402;16.678;2022-11-20T01:21:34;-0.50;99.90
19344;DHT22;9808;52.402;16.678;2022-11-20T01:24:02;-0.50;99.90
19344;DHT22;9808;52.402;16.678;2022-11-20T01:26:34;-0.50;99.90
19344;DHT22;9808;52.402;16.678;2022-11-20T01:29:02;-0.50;99.90
19344;DHT22;9808;52.402;16.678;2022-11-20T01:31:31;-0.50;99.90
19344;DHT22;9808;52.402;16.678;2022-11-20T01:34:01;-0.50;99.90
19344;DHT22;9808;52.402;16.678;2022-11-20T01:36:30;-0.50;99.90
19344;DHT22;9808;52.402;16.678;2022-11-20T01:39:00;-0.50;99.90
19344;DHT22;9808;52.402;16.678;2022-11-20T01:41:30;-0.50;99.90
19344;DHT22;9808;52.402;16.678;2022-11-20T01:44:18;-0.50;99.90
19344;DHT22;9808;52.402;16.678;2022-11-20T01:47:01;-0.50;99.90
19344;DHT22;9808;52.402;16.678;2022-11-20T01:49:34;-0.50;99.90
19344;DHT22;9808;52.402;16.678;2022-11-20T01:52:05;-0.50;99.90
19344;DHT22;9808;52.402;16.678;2022-11-20T01:54:38;-0.60;99.90
19344;DHT22;9808;52.402;16.678;2022-11-20T01:57:06;-0.60;99.90
19344;DHT22;9808;52.402;16.678;2022-11-20T01:59:38;-0.60;99.90
19344;DHT22;9808;52.402;16.678;2022-11-20T02:02:07;-0.60;99.90
19344;DHT22;9808;52.402;16.678;2022-11-20T02:04:34;-0.60;99.90
19344;DHT22;9808;52.402;16.678;2022-11-20T02:07:02;-0.60;99.90
19344;DHT22;9808;52.402;16.678;2022-11-20T02:09:30;-0.60;99.90
19344;DHT22;9808;52.402;16.678;2022-11-20T02:11:58;-0.60;99.90
19344;DHT22;9808;52.402;16.678;2022-11-20T02:14:25;-0.60;99.90
19344;DHT22;9808;52.402;16.678;2022-11-20T02:16:54;-0.60;99.90
19344;DHT22;9808;52.402;16.678;2022-11-20T02:22:14;-0.60;99.90
19344;DHT22;9808;52.402;16.678;2022-11-20T02:24:46;-0.60;99.90
19344;DHT22;9808;52.402;16.678;2022-11-20T02:27:15;-0.60;99.90
19344;DHT22;9808;52.402;16.678;2022-11-20T02:30:04;-0.60;99.90
19344;DHT22;9808;52.402;16.678;2022-11-20T02:32:34;-0.60;99.90
19344;DHT22;9808;52.402;16.678;2022-11-20T02:38:00;-0.60;99.90
19344;DHT22;9808;52.402;16.678;2022-11-20T02:40:28;-0.60;99.90
19344;DHT22;9808;52.402;16.678;2022-11-20T02:42:56;-0.60;99.90
19344;DHT22;9808;52.402;16.678;2022-11-20T02:45:24;-0.50;99.90
19344;DHT22;9808;52.402;16.678;2022-11-20T02:47:51;-0.50;99.90
19344;DHT22;9808;52.402;16.678;2022-11-20T02:50:18;-0.50;99.90
19344;DHT22;9808;52.402;16.678;2022-11-20T02:52:45;-0.60;99.90
19344;DHT22;9808;52.402;16.678;2022-11-20T02:55:12;-0.60;99.90
19344;DHT22;9808;52.402;16.678;2022-11-20T02:57:39;-0.50;99.90
19344;DHT22;9808;52.402;16.678;2022-11-20T03:00:06;-0.60;99.90
19344;DHT22;9808;52.402;16.678;2022-11-20T03:02:33;-0.50;99.90
19344;DHT22;9808;52.402;16.678;2022-11-20T03:05:00;-0.50;99.90
19344;DHT22;9808;52.402;16.678;2022-11-20T03:07:27;-0.50;99.90
19344;DHT22;9808;52.402;16.678;2022-11-20T03:09:54;-0.50;99.90
19344;DHT22;9808;52.402;16.678;2022-11-20T03:12:22;-0.50;99.90
19344;DHT22;9808;52.402;16.678;2022-11-20T03:14:48;-0.50;99.90
19344;DHT22;9808;52.402;16.678;2022-11-20T03:17:19;-0.50;99.90
19344;DHT22;9808;52.402;16.678;2022-11-20T03:19:45;-0.50;99.90
19344;DHT22;9808;52.402;16.678;2022-11-20T03:22:12;-0.50;99.90
19344;DHT22;9808;52.402;16.678;2022-11-20T03:24:39;-0.40;99.90
19344;DHT22;9808;52.402;16.678;2022-11-20T03:27:06;-0.40;99.90
19344;DHT22;9808;52.402;16.678;2022-11-20T03:29:34;-0.40;99.90
19344;DHT22;9808;52.402;16.678;2022-11-20T03:32:01;-0.40;99.90
19344;DHT22;9808;52.402;16.678;2022-11-20T03:34:27;-0.40;99.90
19344;DHT22;9808;52.402;16.678;2022-11-20T03:36:54;-0.40;99.90
19344;DHT22;9808;52.402;16.678;2022-11-20T03:39:21;-0.40;99.90
19344;DHT22;9808;52.402;16.678;2022-11-20T03:41:48;-0.40;99.90
19344;DHT22;9808;52.402;16.678;2022-11-20T03:44:15;-0.40;99.90
19344;DHT22;9808;52.402;16.678;2022-11-20T03:46:41;-0.40;99.90
19344;DHT22;9808;52.402;16.678;2022-11-20T03:49:08;-0.40;99.90
19344;DHT22;9808;52.402;16.678;2022-11-20T03:51:35;-0.40;99.90
19344;DHT22;9808;52.402;16.678;2022-11-20T03:54:07;-0.30;99.90
19344;DHT22;9808;52.402;16.678;2022-11-20T03:56:36;-0.30;99.90
19344;DHT22;9808;52.402;16.678;2022-11-20T03:59:04;-0.30;99.90
19344;DHT22;9808;52.402;16.678;2022-11-20T04:01:36;-0.30;99.90
19344;DHT22;9808;52.402;16.678;2022-11-20T04:04:04;-0.30;99.90
19344;DHT22;9808;52.402;16.678;2022-11-20T04:06:35;-0.30;99.90
19344;DHT22;9808;52.402;16.678;2022-11-20T04:09:03;-0.30;99.90
19344;DHT22;9808;52.402;16.678;2022-11-20T04:11:32;-0.30;99.90
19344;DHT22;9808;52.402;16.678;2022-11-20T04:14:01;-0.30;99.90
19344;DHT22;9808;52.402;16.678;2022-11-20T04:16:30;-0.30;99.90
19344;DHT22;9808;52.402;16.678;2022-11-20T04:18:59;-0.30;99.90
19344;DHT22;9808;52.402;16.678;2022-11-20T04:21:26;-0.40;99.90
19344;DHT22;9808;52.402;16.678;2022-11-20T04:23:54;-0.30;99.90
19344;DHT22;9808;52.402;16.678;2022-11-20T04:26:22;-0.30;99.90
19344;DHT22;9808;52.402;16.678;2022-11-20T04:28:49;-0.30;99.90
19344;DHT22;9808;52.402;16.678;2022-11-20T04:31:21;-0.40;99.90
19344;DHT22;9808;52.402;16.678;2022-11-20T04:33:49;-0.40;99.90
19344;DHT22;9808;52.402;16.678;2022-11-20T04:36:22;-0.40;99.90
19344;DHT22;9808;52.402;16.678;2022-11-20T04:39:00;-0.40;99.90
19344;DHT22;9808;52.402;16.678;2022-11-20T04:41:32;-0.40;99.90
19344;DHT22;9808;52.402;16.678;2022-11-20T04:44:01;-0.40;99.90
19344;DHT22;9808;52.402;16.678;2022-11-20T04:46:33;-0.40;99.90
19344;DHT22;9808;52.402;16.678;2022-11-20T04:49:00;-0.40;99.90
19344;DHT22;9808;52.402;16.678;2022-11-20T04:51:27;-0.40;99.90
19344;DHT22;9808;52.402;16.678;2022-11-20T04:53:54;-0.40;99.90
19344;DHT22;9808;52.402;16.678;2022-11-20T04:56:21;-0.40;99.90
19344;DHT22;9808;52.402;16.678;2022-11-20T04:58:48;-0.40;99.90
19344;DHT22;9808;52.402;16.678;2022-11-20T05:01:20;-0.40;99.90
19344;DHT22;9808;52.402;16.678;2022-11-20T05:03:48;-0.40;99.90
19344;DHT22;9808;52.402;16.678;2022-11-20T05:06:17;-0.40;99.90
19344;DHT22;9808;52.402;16.678;2022-11-20T05:08:44;-0.40;99.90
19344;DHT22;9808;52.402;16.678;2022-11-20T05:11:13;-0.40;99.90
19344;DHT22;9808;52.402;16.678;2022-11-20T05:13:41;-0.40;99.90
19344;DHT22;9808;52.402;16.678;2022-11-20T05:16:13;-0.40;99.90
19344;DHT22;9808;52.402;16.678;2022-11-20T05:18:41;-0.40;99.90
19344;DHT22;9808;52.402;16.678;2022-11-20T05:21:09;-0.40;99.90
19344;DHT22;9808;52.402;16.678;2022-11-20T05:23:36;-0.40;99.90
19344;DHT22;9808;52.402;16.678;2022-11-20T05:26:03;-0.30;99.90
19344;DHT22;9808;52.402;16.678;2022-11-20T05:28:31;-0.30;99.90
19344;DHT22;9808;52.402;16.678;2022-11-20T05:31:09;-0.30;99.90
19344;DHT22;9808;52.402;16.678;2022-11-20T05:33:36;-0.30;99.90
19344;DHT22;9808;52.402;16.678;2022-11-20T05:36:04;-0.40;99.90
19344;DHT22;9808;52.402;16.678;2022-11-20T05:38:31;-0.30;99.90
19344;DHT22;9808;52.402;16.678;2022-11-20T05:41:09;-0.40;99.90
19344;DHT22;9808;52.402;16.678;2022-11-20T05:43:37;-0.40;99.90
19344;DHT22;9808;52.402;16.678;2022-11-20T05:46:06;-0.40;99.90
19344;DHT22;9808;52.402;16.678;2022-11-20T05:48:34;-0.30;99.90
19344;DHT22;9808;52.402;16.678;2022-11-20T05:51:02;-0.40;99.90
19344;DHT22;9808;52.402;16.678;2022-11-20T05:53:30;-0.40;99.90
19344;DHT22;9808;52.402;16.678;2022-11-20T05:58:24;-0.40;99.90
19344;DHT22;9808;52.402;16.678;2022-11-20T06:00:52;-0.40;99.90
19344;DHT22;9808;52.402;16.678;2022-11-20T06:03:19;-0.40;99.90
19344;DHT22;9808;52.402;16.678;2022-11-20T06:05:46;-0.40;99.90
19344;DHT22;9808;52.402;16.678;2022-11-20T06:08:13;-0.50;99.90
19344;DHT22;9808;52.402;16.678;2022-11-20T06:10:39;-0.50;99.90
19344;DHT22;9808;52.402;16.678;2022-11-20T06:13:06;-0.50;99.90
19344;DHT22;9808;52.402;16.678;2022-11-20T06:15:33;-0.50;99.90
19344;DHT22;9808;52.402;16.678;2022-11-20T06:17:59;-0.50;99.90
19344;DHT22;9808;52.402;16.678;2022-11-20T06:20:26;-0.50;99.90
19344;DHT22;9808;52.402;16.678;2022-11-20T06:22:53;-0.50;99.90
19344;DHT22;9808;52.402;16.678;2022-11-20T06:25:19;-0.60;99.90
19344;DHT22;9808;52.402;16.678;2022-11-20T06:27:46;-0.60;99.90
19344;DHT22;9808;52.402;16.678;2022-11-20T06:30:13;-0.60;99.90
19344;DHT22;9808;52.402;16.678;2022-11-20T06:32:40;-0.60;99.90
19344;DHT22;9808;52.402;16.678;2022-11-20T06:35:07;-0.60;99.90
19344;DHT22;9808;52.402;16.678;2022-11-20T06:37:34;-0.60;99.90
19344;DHT22;9808;52.402;16.678;2022-11-20T06:40:00;-0.60;99.90
19344;DHT22;9808;52.402;16.678;2022-11-20T06:42:27;-0.60;99.90
19344;DHT22;9808;52.402;16.678;2022-11-20T06:44:54;-0.60;99.90
19344;DHT22;9808;52.402;16.678;2022-11-20T06:47:20;-0.60;99.90
19344;DHT22;9808;52.402;16.678;2022-11-20T06:49:47;-0.60;99.90
19344;DHT22;9808;52.402;16.678;2022-11-20T06:52:14;-0.60;99.90
19344;DHT22;9808;52.402;16.678;2022-11-20T06:54:40;-0.60;99.90
19344;DHT22;9808;52.402;16.678;2022-11-20T06:57:07;-0.60;99.90
19344;DHT22;9808;52.402;16.678;2022-11-20T06:59:34;-0.60;99.90
19344;DHT22;9808;52.402;16.678;2022-11-20T07:02:00;-0.60;99.90
19344;DHT22;9808;52.402;16.678;2022-11-20T07:04:27;-0.60;99.90
19344;DHT22;9808;52.402;16.678;2022-11-20T07:06:54;-0.60;99.90
19344;DHT22;9808;52.402;16.678;2022-11-20T07:09:21;-0.60;99.90
19344;DHT22;9808;52.402;16.678;2022-11-20T07:11:47;-0.60;99.90
19344;DHT22;9808;52.402;16.678;2022-11-20T07:14:14;-0.60;99.90
19344;DHT22;9808;52.402;16.678;2022-11-20T07:16:41;-0.60;99.90
19344;DHT22;9808;52.402;16.678;2022-11-20T07:19:08;-0.60;99.90
19344;DHT22;9808;52.402;16.678;2022-11-20T07:21:34;-0.60;99.90
19344;DHT22;9808;52.402;16.678;2022-11-20T07:24:01;-0.60;99.90
19344;DHT22;9808;52.402;16.678;2022-11-20T07:26:28;-0.60;99.90
19344;DHT22;9808;52.402;16.678;2022-11-20T07:28:54;-0.60;99.90
19344;DHT22;9808;52.402;16.678;2022-11-20T07:31:21;-0.60;99.90
19344;DHT22;9808;52.402;16.678;2022-11-20T07:33:48;-0.50;99.90
19344;DHT22;9808;52.402;16.678;2022-11-20T07:36:15;-0.50;97.90
19344;DHT22;9808;52.402;16.678;2022-11-20T07:38:41;-0.50;96.60
19344;DHT22;9808;52.402;16.678;2022-11-20T07:41:08;-0.50;95.60
19344;DHT22;9808;52.402;16.678;2022-11-20T07:43:35;-0.50;96.70
19344;DHT22;9808;52.402;16.678;2022-11-20T07:46:07;-0.50;97.10
19344;DHT22;9808;52.402;16.678;2022-11-20T07:48:33;-0.50;96.50
19344;DHT22;9808;52.402;16.678;2022-11-20T07:51:00;0.20;97.70
19344;DHT22;9808;52.402;16.678;2022-11-20T07:53:27;-0.50;96.20
19344;DHT22;9808;52.402;16.678;2022-11-20T07:55:54;-0.40;98.10
19344;DHT22;9808;52.402;16.678;2022-11-20T07:58:21;-0.40;98.10
19344;DHT22;9808;52.402;16.678;2022-11-20T08:00:48;-0.40;99.00
19344;DHT22;9808;52.402;16.678;2022-11-20T08:03:15;-0.30;98.00
19344;DHT22;9808;52.402;16.678;2022-11-20T08:05:49;-0.30;97.40
19344;DHT22;9808;52.402;16.678;2022-11-20T08:08:16;-0.30;96.20
19344;DHT22;9808;52.402;16.678;2022-11-20T08:10:43;-0.20;95.50
19344;DHT22;9808;52.402;16.678;2022-11-20T08:13:09;-0.20;93.80
19344;DHT22;9808;52.402;16.678;2022-11-20T08:15:55;-0.10;93.90
19344;DHT22;9808;52.402;16.678;2022-11-20T08:18:22;-0.10;93.20
19344;DHT22;9808;52.402;16.678;2022-11-20T08:20:57;-0.10;91.90
19344;DHT22;9808;52.402;16.678;2022-11-20T08:23:24;-0.10;91.30
19344;DHT22;9808;52.402;16.678;2022-11-20T08:25:51;-0.10;89.00
19344;DHT22;9808;52.402;16.678;2022-11-20T08:28:18;0.00;93.00
19344;DHT22;9808;52.402;16.678;2022-11-20T08:30:48;0.00;78.30
19344;DHT22;9808;52.402;16.678;2022-11-20T08:33:17;0.40;76.60
19344;DHT22;9808;52.402;16.678;2022-11-20T08:35:44;0.00;72.20
19344;DHT22;9808;52.402;16.678;2022-11-20T08:38:11;0.10;61.70
19344;DHT22;9808;52.402;16.678;2022-11-20T08:40:38;0.10;67.10
19344;DHT22;9808;52.402;16.678;2022-11-20T08:43:05;0.10;70.90
19344;DHT22;9808;52.402;16.678;2022-11-20T08:45:31;0.10;73.50
19344;DHT22;9808;52.402;16.678;2022-11-20T08:48:02;0.20;73.30
19344;DHT22;9808;52.402;16.678;2022-11-20T08:50:29;0.30;82.80
19344;DHT22;9808;52.402;16.678;2022-11-20T08:53:05;0.30;83.80
19344;DHT22;9808;52.402;16.678;2022-11-20T08:55:32;0.30;69.40
19344;DHT22;9808;52.402;16.678;2022-11-20T08:58:03;0.40;80.40
19344;DHT22;9808;52.402;16.678;2022-11-20T09:00:30;0.40;71.90
19344;DHT22;9808;52.402;16.678;2022-11-20T09:02:59;0.50;75.20
19344;DHT22;9808;52.402;16.678;2022-11-20T09:05:27;0.60;71.80
19344;DHT22;9808;52.402;16.678;2022-11-20T09:07:58;0.60;75.60
19344;DHT22;9808;52.402;16.678;2022-11-20T09:10:26;0.60;63.10
19344;DHT22;9808;52.402;16.678;2022-11-20T09:12:53;0.60;58.90
19344;DHT22;9808;52.402;16.678;2022-11-20T09:15:21;0.70;49.60
19344;DHT22;9808;52.402;16.678;2022-11-20T09:17:58;0.70;47.20
19344;DHT22;9808;52.402;16.678;2022-11-20T09:20:26;0.70;41.10
19344;DHT22;9808;52.402;16.678;2022-11-20T09:22:53;0.70;48.20
19344;DHT22;9808;52.402;16.678;2022-11-20T09:25:20;0.70;30.00
19344;DHT22;9808;52.402;16.678;2022-11-20T09:27:47;0.70;16.00
19344;DHT22;9808;52.402;16.678;2022-11-20T09:30:15;0.70;29.20
19344;DHT22;9808;52.402;16.678;2022-11-20T09:32:42;0.80;45.80
19344;DHT22;9808;52.402;16.678;2022-11-20T09:35:09;0.80;33.60
19344;DHT22;9808;52.402;16.678;2022-11-20T09:37:37;0.90;39.90
19344;DHT22;9808;52.402;16.678;2022-11-20T09:40:04;1.00;41.10
19344;DHT22;9808;52.402;16.678;2022-11-20T09:42:40;1.00;27.40
19344;DHT22;9808;52.402;16.678;2022-11-20T09:56:20;1.30;1.00
19344;DHT22;9808;52.402;16.678;2022-11-20T09:58:50;1.30;1.00
19344;DHT22;9808;52.402;16.678;2022-11-20T10:01:23;1.40;1.00
19344;DHT22;9808;52.402;16.678;2022-11-20T10:04:04;1.40;1.00
19344;DHT22;9808;52.402;16.678;2022-11-20T10:07:19;1.50;1.00
19344;DHT22;9808;52.402;16.678;2022-11-20T10:09:58;1.50;1.00
19344;DHT22;9808;52.402;16.678;2022-11-20T10:20:46;1.60;1.00
19344;DHT22;9808;52.402;16.678;2022-11-20T10:23:26;1.70;1.00
19344;DHT22;9808;52.402;16.678;2022-11-20T10:31:36;1.80;1.00
19344;DHT22;9808;52.402;16.678;2022-11-20T10:34:20;1.80;1.00
19344;DHT22;9808;52.402;16.678;2022-11-20T10:37:10;1.90;1.00
19344;DHT22;9808;52.402;16.678;2022-11-20T10:39:55;1.90;1.00
19344;DHT22;9808;52.402;16.678;2022-11-20T10:42:34;1.90;1.00
19344;DHT22;9808;52.402;16.678;2022-11-20T10:50:31;1.90;1.00
19344;DHT22;9808;52.402;16.678;2022-11-20T10:53:05;1.90;1.00
19344;DHT22;9808;52.402;16.678;2022-11-20T10:55:48;1.80;1.00
19344;DHT22;9808;52.402;16.678;2022-11-20T10:58:26;1.80;1.00
19344;DHT22;9808;52.402;16.678;2022-11-20T11:01:05;1.70;1.00
19344;DHT22;9808;52.402;16.678;2022-11-20T11:03:32;1.80;1.00
19344;DHT22;9808;52.402;16.678;2022-11-20T11:06:06;1.80;1.00
19344;DHT22;9808;52.402;16.678;2022-11-20T11:08:39;1.90;1.00
19344;DHT22;9808;52.402;16.678;2022-11-20T11:13:47;2.00;1.00
19344;DHT22;9808;52.402;16.678;2022-11-20T11:16:22;2.00;1.00
19344;DHT22;9808;52.402;16.678;2022-11-20T11:18:50;2.00;1.00
19344;DHT22;9808;52.402;16.678;2022-11-20T11:21:24;2.00;1.00
19344;DHT22;9808;52.402;16.678;2022-11-20T11:23:59;2.10;1.00
19344;DHT22;9808;52.402;16.678;2022-11-20T11:26:56;2.10;1.00
19344;DHT22;9808;52.402;16.678;2022-11-20T11:29:23;2.10;1.00
19344;DHT22;9808;52.402;16.678;2022-11-20T11:32:04;2.60;1.00
19344;DHT22;9808;52.402;16.678;2022-11-20T11:34:32;2.10;1.00
19344;DHT22;9808;52.402;16.678;2022-11-20T11:37:00;2.20;1.00
19344;DHT22;9808;52.402;16.678;2022-11-20T11:39:29;3.10;1.00
19344;DHT22;9808;52.402;16.678;2022-11-20T11:41:58;2.20;1.00
19344;DHT22;9808;52.402;16.678;2022-11-20T11:44:34;2.10;1.00
19344;DHT22;9808;52.402;16.678;2022-11-20T11:47:30;2.00;1.00
19344;DHT22;9808;52.402;16.678;2022-11-20T12:06:51;1.60;1.00
19344;DHT22;9808;52.402;16.678;2022-11-20T12:09:24;1.60;1.00
19344;DHT22;9808;52.402;16.678;2022-11-20T12:11:58;1.60;1.00
19344;DHT22;9808;52.402;16.678;2022-11-20T12:14:38;1.50;1.00
19344;DHT22;9808;52.402;16.678;2022-11-20T12:17:11;1.50;1.00
19344;DHT22;9808;52.402;16.678;2022-11-20T12:19:38;1.50;1.00
19344;DHT22;9808;52.402;16.678;2022-11-20T12:24:52;1.40;1.00
19344;DHT22;9808;52.402;16.678;2022-11-20T12:30:11;1.40;1.00
19344;DHT22;9808;52.402;16.678;2022-11-20T12:35:50;1.40;1.00
19344;DHT22;9808;52.402;16.678;2022-11-20T12:38:33;1.40;1.00
19344;DHT22;9808;52.402;16.678;2022-11-20T12:41:20;1.40;1.00
19344;DHT22;9808;52.402;16.678;2022-11-20T12:44:38;1.40;1.00
19344;DHT22;9808;52.402;16.678;2022-11-20T12:52:50;1.50;1.00
19344;DHT22;9808;52.402;16.678;2022-11-20T12:58:08;1.50;1.00
19344;DHT22;9808;52.402;16.678;2022-11-20T13:00:46;1.60;1.00
19344;DHT22;9808;52.402;16.678;2022-11-20T13:03:31;1.50;1.00
19344;DHT22;9808;52.402;16.678;2022-11-20T13:06:16;1.50;1.00
19344;DHT22;9808;52.402;16.678;2022-11-20T13:08:54;1.50;1.00
19344;DHT22;9808;52.402;16.678;2022-11-20T13:11:42;1.50;1.00
19344;DHT22;9808;52.402;16.678;2022-11-20T13:16:58;1.50;1.00
19344;DHT22;9808;52.402;16.678;2022-11-20T13:19:32;1.60;1.00
19344;DHT22;9808;52.402;16.678;2022-11-20T13:21:59;1.60;1.00
19344;DHT22;9808;52.402;16.678;2022-11-20T13:24:29;1.50;1.00
19344;DHT22;9808;52.402;16.678;2022-11-20T13:29:36;1.50;1.00
19344;DHT22;9808;52.402;16.678;2022-11-20T13:34:39;1.50;1.00
19344;DHT22;9808;52.402;16.678;2022-11-20T13:37:34;1.50;1.00
19344;DHT22;9808;52.402;16.678;2022-11-20T13:40:22;1.40;1.00
19344;DHT22;9808;52.402;16.678;2022-11-20T13:43:08;1.40;1.00
19344;DHT22;9808;52.402;16.678;2022-11-20T13:45:37;1.40;1.00
19344;DHT22;9808;52.402;16.678;2022-11-20T13:48:16;1.40;1.00
19344;DHT22;9808;52.402;16.678;2022-11-20T13:50:56;1.30;1.00
19344;DHT22;9808;52.402;16.678;2022-11-20T13:53:46;1.40;1.00
19344;DHT22;9808;52.402;16.678;2022-11-20T13:59:24;1.30;1.00
19344;DHT22;9808;52.402;16.678;2022-11-20T14:01:54;1.20;1.00
19344;DHT22;9808;52.402;16.678;2022-11-20T14:04:30;1.20;1.00
19344;DHT22;9808;52.402;16.678;2022-11-20T14:06:59;1.10;1.00
19344;DHT22;9808;52.402;16.678;2022-11-20T14:09:28;1.10;1.00
19344;DHT22;9808;52.402;16.678;2022-11-20T14:11:55;1.10;1.10
19344;DHT22;9808;52.402;16.678;2022-11-20T14:14:26;1.00;3.20
19344;DHT22;9808;52.402;16.678;2022-11-20T14:17:08;1.10;3.90
19344;DHT22;9808;52.402;16.678;2022-11-20T14:19:44;1.00;5.40
19344;DHT22;9808;52.402;16.678;2022-11-20T14:22:24;1.00;7.20
19344;DHT22;9808;52.402;16.678;2022-11-20T14:25:17;1.00;11.40
19344;DHT22;9808;52.402;16.678;2022-11-20T14:27:49;1.00;13.00
19344;DHT22;9808;52.402;16.678;2022-11-20T14:30:20;1.00;14.60
19344;DHT22;9808;52.402;16.678;2022-11-20T14:32:48;0.90;18.40
19344;DHT22;9808;52.402;16.678;2022-11-20T14:35:25;1.00;17.90
19344;DHT22;9808;52.402;16.678;2022-11-20T14:37:53;1.20;18.60
19344;DHT22;9808;52.402;16.678;2022-11-20T14:40:27;0.90;19.10
19344;DHT22;9808;52.402;16.678;2022-11-20T14:42:55;0.90;17.40
19344;DHT22;9808;52.402;16.678;2022-11-20T14:45:22;0.90;18.30
19344;DHT22;9808;52.402;16.678;2022-11-20T14:47:52;0.90;19.40
19344;DHT22;9808;52.402;16.678;2022-11-20T14:50:25;0.90;21.60
19344;DHT22;9808;52.402;16.678;2022-11-20T14:52:58;0.90;24.70
19344;DHT22;9808;52.402;16.678;2022-11-20T14:55:43;0.80;28.10
19344;DHT22;9808;52.402;16.678;2022-11-20T14:58:24;0.80;32.00
19344;DHT22;9808;52.402;16.678;2022-11-20T15:03:36;0.70;41.00
19344;DHT22;9808;52.402;16.678;2022-11-20T15:06:05;0.70;45.10
19344;DHT22;9808;52.402;16.678;2022-11-20T15:08:33;0.70;49.00
19344;DHT22;9808;52.402;16.678;2022-11-20T15:11:00;0.60;52.40
19344;DHT22;9808;52.402;16.678;2022-11-20T15:13:36;0.60;52.80
19344;DHT22;9808;52.402;16.678;2022-11-20T15:16:18;0.60;53.00
19344;DHT22;9808;52.402;16.678;2022-11-20T15:18:46;0.60;53.20
19344;DHT22;9808;52.402;16.678;2022-11-20T15:21:18;1.10;52.90
19344;DHT22;9808;52.402;16.678;2022-11-20T15:23:45;0.50;53.40
19344;DHT22;9808;52.402;16.678;2022-11-20T15:26:17;0.50;55.40
19344;DHT22;9808;52.402;16.678;2022-11-20T15:28:47;0.50;56.80
19344;DHT22;9808;52.402;16.678;2022-11-20T15:31:16;0.50;58.10
19344;DHT22;9808;52.402;16.678;2022-11-20T15:33:44;0.50;58.10
19344;DHT22;9808;52.402;16.678;2022-11-20T15:36:10;0.50;58.90
19344;DHT22;9808;52.402;16.678;2022-11-20T15:38:37;0.50;60.10
19344;DHT22;9808;52.402;16.678;2022-11-20T15:41:04;0.50;61.50
19344;DHT22;9808;52.402;16.678;2022-11-20T15:43:32;0.50;64.30
19344;DHT22;9808;52.402;16.678;2022-11-20T15:46:13;0.50;66.20
19344;DHT22;9808;52.402;16.678;2022-11-20T15:48:42;0.50;70.10
19344;DHT22;9808;52.402;16.678;2022-11-20T15:51:33;-0.40;71.20
19344;DHT22;9808;52.402;16.678;2022-11-20T15:54:01;0.50;67.60
19344;DHT22;9808;52.402;16.678;2022-11-20T15:56:30;0.50;55.50
19344;DHT22;9808;52.402;16.678;2022-11-20T15:59:00;0.50;53.10
19344;DHT22;9808;52.402;16.678;2022-11-20T16:01:28;0.40;41.60
19344;DHT22;9808;52.402;16.678;2022-11-20T16:03:55;0.30;46.40
19344;DHT22;9808;52.402;16.678;2022-11-20T16:06:21;0.40;48.50
19344;DHT22;9808;52.402;16.678;2022-11-20T16:08:48;0.40;54.40
19344;DHT22;9808;52.402;16.678;2022-11-20T16:11:16;0.40;63.60
19344;DHT22;9808;52.402;16.678;2022-11-20T16:13:44;1.30;64.70
19344;DHT22;9808;52.402;16.678;2022-11-20T16:16:36;0.40;66.60
19344;DHT22;9808;52.402;16.678;2022-11-20T16:19:04;0.40;68.90
19344;DHT22;9808;52.402;16.678;2022-11-20T16:21:31;0.40;70.30
19344;DHT22;9808;52.402;16.678;2022-11-20T16:23:59;-0.20;73.30
19344;DHT22;9808;52.402;16.678;2022-11-20T16:26:27;0.40;75.20
19344;DHT22;9808;52.402;16.678;2022-11-20T16:28:54;0.40;76.40
19344;DHT22;9808;52.402;16.678;2022-11-20T16:31:22;0.40;77.80
19344;DHT22;9808;52.402;16.678;2022-11-20T16:33:54;0.40;79.30
19344;DHT22;9808;52.402;16.678;2022-11-20T16:36:23;1.90;81.20
19344;DHT22;9808;52.402;16.678;2022-11-20T16:39:00;0.40;81.40
19344;DHT22;9808;52.402;16.678;2022-11-20T16:41:30;2.10;84.30
19344;DHT22;9808;52.402;16.678;2022-11-20T16:43:59;0.40;84.50
19344;DHT22;9808;52.402;16.678;2022-11-20T16:46:31;0.40;85.20
19344;DHT22;9808;52.402;16.678;2022-11-20T16:49:00;0.40;86.40
19344;DHT22;9808;52.402;16.678;2022-11-20T16:51:28;0.40;87.10
19344;DHT22;9808;52.402;16.678;2022-11-20T16:53:56;0.40;88.30
19344;DHT22;9808;52.402;16.678;2022-11-20T16:56:24;0.40;88.70
19344;DHT22;9808;52.402;16.678;2022-11-20T16:58:54;0.40;88.60
19344;DHT22;9808;52.402;16.678;2022-11-20T17:01:22;0.40;88.70
19344;DHT22;9808;52.402;16.678;2022-11-20T17:04:03;0.40;88.60
19344;DHT22;9808;52.402;16.678;2022-11-20T17:06:33;0.30;88.30
19344;DHT22;9808;52.402;16.678;2022-11-20T17:09:00;0.30;87.80
19344;DHT22;9808;52.402;16.678;2022-11-20T17:11:27;0.30;88.00
19344;DHT22;9808;52.402;16.678;2022-11-20T17:13:55;0.30;88.60
19344;DHT22;9808;52.402;16.678;2022-11-20T17:16:23;0.30;87.80
19344;DHT22;9808;52.402;16.678;2022-11-20T17:18:50;0.30;86.90
19344;DHT22;9808;52.402;16.678;2022-11-20T17:21:26;0.20;86.00
19344;DHT22;9808;52.402;16.678;2022-11-20T17:24:03;0.20;86.70
19344;DHT22;9808;52.402;16.678;2022-11-20T17:26:33;0.20;87.30
19344;DHT22;9808;52.402;16.678;2022-11-20T17:29:08;0.20;87.60
19344;DHT22;9808;52.402;16.678;2022-11-20T17:31:38;0.20;87.70